This is the latest recevied weather packets stored in our database for station/object F4WDE-10. If no packets are shown the sender has not sent any weather packets the latest 10 day(s).
| Time | Temp. | Humidity | Pressure | Rain* | Wind** | Luminosity | Snow |
|---|---|---|---|---|---|---|---|
| 1778021831 | 15° C | 94% | 956 hPa | - | - | - | - |
| 1778020930 | 15.56° C | 95% | 956 hPa | - | - | - | - |
| 1778020029 | 15° C | 100% | 957 hPa | - | - | - | - |
| 1778019128 | 15° C | 95% | 957 hPa | - | - | - | - |
| 1778018227 | 16.11° C | 95% | 957 hPa | - | - | - | - |
| 1778017326 | 16.11° C | 97% | 957 hPa | - | - | - | - |
| 1778016425 | 16.11° C | 97% | 957 hPa | - | - | - | - |
| 1778015524 | 16.11° C | 98% | 958 hPa | - | - | - | - |
| 1778014623 | 16.11° C | 96% | 957 hPa | - | - | - | - |
| 1778013721 | 16.11° C | 94% | 958 hPa | - | - | - | - |
| 1778012820 | 16.67° C | 89% | 957 hPa | - | - | - | - |
| 1778011919 | 16.11° C | 92% | 957 hPa | - | - | - | - |
| 1778011018 | 16.67° C | 93% | 957 hPa | - | - | - | - |
| 1778010116 | 16.67° C | 91% | 957 hPa | - | - | - | - |
| 1778009215 | 16.67° C | 90% | 957 hPa | - | - | - | - |
| 1778008314 | 16.11° C | 91% | 957 hPa | - | - | - | - |
| 1778007413 | 16.11° C | 87% | 957 hPa | - | - | - | - |
| 1778006512 | 17.22° C | 81% | 957 hPa | - | - | - | - |
| 1778005611 | 17.22° C | 84% | 957 hPa | - | - | - | - |
| 1778004710 | 17.78° C | 82% | 957 hPa | - | - | - | - |
| 1778003809 | 18.89° C | 76% | 957 hPa | - | - | - | - |
| 1778002907 | 18.89° C | 74% | 957 hPa | - | - | - | - |
| 1778002006 | 20° C | 69% | 957 hPa | - | - | - | - |
| 1778001105 | 21.67° C | 61% | 957 hPa | - | - | - | - |
| 1778000204 | 23.33° C | 53% | 957 hPa | - | - | - | - |
* Rain since midnight (hover to see other rain measurements)
** Current wind speed in m/s (hover to see current wind gust speed)